TimeMDT,TemperatureF,Dew PointF,Humidity,Sea Level PressureIn,VisibilityMPH,Wind Direction,Wind SpeedMPH,Gust SpeedMPH,PrecipitationIn,Events,Conditions,WindDirDegrees,DateUTC
12:15 AM,32.4,25.9,77,29.87,10.0,WNW,6.9,-,N/A,,Overcast,290,2013-04-12 06:15:00
12:35 AM,32.4,26.4,79,29.88,10.0,WNW,6.9,-,N/A,,Overcast,290,2013-04-12 06:35:00
12:55 AM,32.4,26.6,79,29.88,10.0,WNW,4.6,-,N/A,,Overcast,300,2013-04-12 06:55:00
1:15 AM,32.4,26.4,79,29.88,10.0,WNW,5.8,-,N/A,,Overcast,290,2013-04-12 07:15:00
1:35 AM,32.0,27.0,82,29.88,10.0,Calm,Calm,-,N/A,,Mostly Cloudy,0,2013-04-12 07:35:00
1:55 AM,31.1,26.6,83,29.88,10.0,West,4.6,-,N/A,,Scattered Clouds,270,2013-04-12 07:55:00
2:15 AM,31.1,27.1,85,29.86,10.0,West,6.9,-,N/A,,Scattered Clouds,280,2013-04-12 08:15:00
2:35 AM,33.1,29.1,85,29.88,10.0,WNW,16.1,19.6,N/A,,Mostly Cloudy,300,2013-04-12 08:35:00
2:55 AM,34.0,29.7,84,29.87,10.0,WNW,16.1,23.0,N/A,,Mostly Cloudy,300,2013-04-12 08:55:00
3:15 AM,34.7,29.8,82,29.87,10.0,NNW,13.8,-,N/A,,Mostly Cloudy,330,2013-04-12 09:15:00
3:35 AM,34.9,30.2,83,29.88,10.0,NW,9.2,-,N/A,,Overcast,310,2013-04-12 09:35:00
3:55 AM,34.2,30.0,85,29.88,10.0,West,9.2,-,N/A,,Overcast,280,2013-04-12 09:55:00
4:15 AM,33.1,30.0,89,29.88,10.0,West,5.8,-,N/A,,Overcast,260,2013-04-12 10:15:00
4:35 AM,32.5,30.0,90,29.88,10.0,West,6.9,-,N/A,,Overcast,260,2013-04-12 10:35:00
4:55 AM,32.4,29.7,90,29.88,10.0,West,6.9,-,N/A,,Overcast,270,2013-04-12 10:55:00
5:15 AM,32.0,29.1,89,29.88,10.0,WSW,4.6,-,N/A,,Scattered Clouds,250,2013-04-12 11:15:00
5:35 AM,31.5,28.9,90,29.86,10.0,WSW,3.5,-,N/A,,Clear,250,2013-04-12 11:35:00
5:55 AM,30.7,28.4,91,29.86,10.0,WSW,5.8,-,N/A,,Clear,250,2013-04-12 11:55:00
6:15 AM,30.4,27.7,90,29.87,10.0,WNW,4.6,-,N/A,,Clear,290,2013-04-12 12:15:00
6:35 AM,30.0,27.7,91,29.88,10.0,West,3.5,-,N/A,,Clear,270,2013-04-12 12:35:00
6:55 AM,30.9,28.2,90,29.88,10.0,Calm,Calm,-,N/A,,Clear,0,2013-04-12 12:55:00
7:15 AM,32.0,29.1,89,29.89,10.0,WSW,3.5,-,N/A,,Clear,240,2013-04-12 13:15:00
7:35 AM,32.7,30.0,90,29.89,10.0,Calm,Calm,-,N/A,,Clear,0,2013-04-12 13:35:00
7:55 AM,34.0,30.6,87,29.90,10.0,Calm,Calm,-,N/A,,Clear,0,2013-04-12 13:55:00
8:15 AM,36.9,31.3,80,29.90,10.0,NW,9.2,-,N/A,,Clear,310,2013-04-12 14:15:00
8:55 AM,39.2,30.7,72,29.90,10.0,NW,8.1,-,N/A,,Clear,320,2013-04-12 14:55:00
9:15 AM,40.1,31.1,70,29.91,10.0,NW,6.9,-,N/A,,Clear,320,2013-04-12 15:15:00
9:35 AM,41.5,31.8,68,29.91,10.0,NNW,8.1,-,N/A,,Clear,340,2013-04-12 15:35:00
9:55 AM,42.6,31.8,66,29.91,10.0,NNW,10.4,-,N/A,,Clear,340,2013-04-12 15:55:00
10:15 AM,43.7,32.2,64,29.91,10.0,NNW,10.4,-,N/A,,Clear,340,2013-04-12 16:15:00
10:35 AM,44.2,32.5,63,29.92,10.0,North,11.5,-,N/A,,Clear,350,2013-04-12 16:35:00
10:55 AM,45.1,32.7,62,29.92,10.0,NNW,10.4,-,N/A,,Clear,340,2013-04-12 16:55:00
11:15 AM,46.2,33.3,61,29.93,10.0,North,12.7,17.3,N/A,,Clear,350,2013-04-12 17:15:00
11:35 AM,46.2,32.7,59,29.93,10.0,North,11.5,17.3,N/A,,Scattered Clouds,350,2013-04-12 17:35:00
11:55 AM,46.8,32.9,59,29.93,10.0,North,11.5,16.1,N/A,,Mostly Cloudy,350,2013-04-12 17:55:00
12:15 PM,47.5,33.4,58,29.93,10.0,NNW,12.7,18.4,N/A,,Mostly Cloudy,340,2013-04-12 18:15:00
12:35 PM,47.1,34.3,61,29.92,10.0,NNW,11.5,16.1,N/A,,Scattered Clouds,340,2013-04-12 18:35:00
12:55 PM,46.9,34.0,61,29.92,10.0,NNW,12.7,-,N/A,,Clear,340,2013-04-12 18:55:00
1:15 PM,45.9,33.3,61,29.93,10.0,NNW,11.5,-,N/A,,Scattered Clouds,330,2013-04-12 19:15:00
1:35 PM,46.8,33.4,60,29.94,10.0,NNW,8.1,-,N/A,,Mostly Cloudy,340,2013-04-12 19:35:00
1:55 PM,47.3,33.1,58,29.95,10.0,NW,13.8,-,N/A,,Mostly Cloudy,320,2013-04-12 19:55:00
2:15 PM,44.1,32.9,65,29.97,10.0,NW,20.7,26.5,N/A,,Light Drizzle,320,2013-04-12 20:15:00
2:35 PM,42.8,34.0,71,29.98,10.0,NNW,16.1,-,N/A,,Light Drizzle,330,2013-04-12 20:35:00
2:55 PM,42.1,35.4,77,29.98,10.0,NNW,12.7,-,N/A,Rain,Light Rain,330,2013-04-12 20:55:00
3:15 PM,43.0,35.2,74,29.97,10.0,NW,11.5,-,N/A,,Mostly Cloudy,310,2013-04-12 21:15:00
3:35 PM,44.6,35.8,71,29.96,10.0,NW,9.2,-,N/A,,Scattered Clouds,320,2013-04-12 21:35:00
3:55 PM,43.5,35.8,74,29.96,10.0,NNW,10.4,-,N/A,Rain,Light Rain,330,2013-04-12 21:55:00
4:15 PM,43.2,35.4,74,29.96,10.0,NW,17.3,24.2,N/A,,Overcast,320,2013-04-12 22:15:00
4:35 PM,44.8,35.4,70,29.96,10.0,NW,13.8,19.6,N/A,,Mostly Cloudy,320,2013-04-12 22:35:00
4:55 PM,45.7,34.3,65,29.96,10.0,NW,9.2,13.8,N/A,,Clear,320,2013-04-12 22:55:00
5:15 PM,46.2,33.8,62,29.96,10.0,NNW,13.8,-,N/A,,Scattered Clouds,330,2013-04-12 23:15:00
5:35 PM,46.6,32.7,59,29.96,10.0,NW,17.3,-,N/A,,Clear,320,2013-04-12 23:35:00
5:55 PM,45.9,32.5,60,29.96,10.0,NW,9.2,-,N/A,,Scattered Clouds,320,2013-04-12 23:55:00
6:15 PM,45.9,32.0,58,29.96,10.0,NW,10.4,-,N/A,,Overcast,320,2013-04-13 00:15:00
6:35 PM,45.7,30.7,56,29.95,10.0,NNW,11.5,-,N/A,,Scattered Clouds,330,2013-04-13 00:35:00
6:55 PM,44.2,30.9,60,29.95,10.0,NW,9.2,-,N/A,,Clear,320,2013-04-13 00:55:00
7:15 PM,41.5,31.8,68,29.96,10.0,NW,5.8,-,N/A,,Clear,320,2013-04-13 01:15:00
7:35 PM,38.1,31.6,77,29.96,10.0,NW,5.8,-,N/A,,Clear,310,2013-04-13 01:35:00
7:55 PM,36.1,30.9,81,29.97,10.0,NW,5.8,-,N/A,,Clear,320,2013-04-13 01:55:00
8:15 PM,34.2,30.0,85,29.97,10.0,NW,4.6,-,N/A,,Clear,310,2013-04-13 02:15:00
8:35 PM,33.6,30.2,87,29.97,10.0,WNW,4.6,-,N/A,,Clear,300,2013-04-13 02:35:00
8:55 PM,32.5,29.8,90,29.97,10.0,Calm,Calm,-,N/A,,Clear,0,2013-04-13 02:55:00
9:15 PM,32.5,30.2,91,29.99,10.0,West,5.8,-,N/A,,Clear,260,2013-04-13 03:15:00
9:35 PM,32.0,29.5,90,29.99,10.0,Calm,Calm,-,N/A,,Clear,0,2013-04-13 03:35:00
9:55 PM,31.5,28.8,90,30.00,10.0,WSW,3.5,-,N/A,,Clear,240,2013-04-13 03:55:00
10:15 PM,32.0,29.8,92,30.00,10.0,West,4.6,-,N/A,,Clear,270,2013-04-13 04:15:00
10:35 PM,31.8,29.3,90,30.01,10.0,NNW,3.5,-,N/A,,Clear,330,2013-04-13 04:35:00
10:55 PM,32.9,30.9,92,30.02,10.0,NNW,6.9,-,N/A,,Clear,330,2013-04-13 04:55:00
11:15 PM,34.5,31.5,89,30.01,10.0,West,4.6,-,N/A,,Clear,270,2013-04-13 05:15:00
11:35 PM,32.2,29.8,91,30.01,10.0,Calm,Calm,-,N/A,,Clear,0,2013-04-13 05:35:00
11:55 PM,32.5,30.7,93,30.01,10.0,Calm,Calm,-,N/A,,Clear,0,2013-04-13 05:55:00